• Join FlightAware (Why Join?)
  • Login
  • US Flag 
06:34AM EST


 

Airport Tracker/Info


-or-


 

Live Flight TrackerFlight Track Log ✈ JZA8279 ✈ 03-May-2013 ✈ CYPR - CYVR

Flight Track Log - Related Links

Times and Time Zones

All times are in EDT time to prevent confusion due to time zone crossing. See the JZA8279 flight status page for this flight to view local times or setup timezone preferences in your user account.

Time Position Orientation Groundspeed Altitude Reporting Facility
EDT Latitude Longitude Course Direction KTS MPH feet Rate Location/Type
02:01PM 54.2500 -130.4500 135° Southeast 140 161 1,400  Level Vancouver Center
02:02PM 54.2167 -130.4167 150° Southeast 140 161 2,900 1,200 Climbing Vancouver Center
02:03PM 54.1667 -130.3833 159° South 160 184 3,800 900 Climbing Vancouver Center
02:04PM 54.1333 -130.3333 139° Southeast 180 207 4,800 900 Climbing Vancouver Center
02:05PM 54.1167 -130.2333 106° East 200 230 5,700 900 Climbing Vancouver Center
02:06PM 53.9005 -129.7956 135° Southeast  Level FlightAware Approximate
02:06PM 54.0667 -130.1667 142° Southeast 210 242 6,600  Level Vancouver Center
02:07PM 54.0167 -130.0833 136° Southeast 210 242 7,600 900 Climbing Vancouver Center
02:08PM 53.9833 -130.0167 130° Southeast 220 253 8,500 900 Climbing Vancouver Center
02:09PM 53.9500 -129.9333 124° Southeast 230 265 9,500 900 Climbing Vancouver Center
02:10PM 53.9000 -129.8667 142° Southeast 230 265 10,400 960 Climbing Vancouver Center
02:11PM 53.8667 -129.7667 119° Southeast 230 265 11,500 900 Climbing Vancouver Center
02:12PM 53.8167 -129.6833 135° Southeast 240 276 12,300 900 Climbing Vancouver Center
02:13PM 53.7833 -129.5833 119° Southeast 240 276 13,300 960 Climbing Vancouver Center
02:14PM 53.7333 -129.5000 135° Southeast 240 276 14,300 900 Climbing Vancouver Center
02:15PM 53.6833 -129.4333 142° Southeast 240 276 15,200 900 Climbing Vancouver Center
02:16PM 53.6333 -129.3500 135° Southeast 240 276 16,200 900 Climbing Vancouver Center
02:17PM 53.6000 -129.2500 119° Southeast 240 276 17,000 360 Climbing Vancouver Center
02:18PM 53.5500 -129.1667 135° Southeast 260 299 17,000  Level Vancouver Center
02:19PM 53.5000 -129.0500 126° Southeast 280 322 17,000  Level Vancouver Center
02:20PM 53.4500 -128.9500 130° Southeast 290 334 17,000  Level Vancouver Center
02:21PM 53.3833 -128.8333 134° Southeast 300 345 17,000  Level Vancouver Center
02:22PM 53.3500 -128.7500 124° Southeast 300 345 17,000  Level Vancouver Center
02:23PM 53.2833 -128.6500 138° Southeast 300 345 17,000  Level Vancouver Center
02:24PM 53.2167 -128.5667 143° Southeast 290 334 17,100  Climbing Vancouver Center
02:25PM 53.1500 -128.4500 134° Southeast 300 345 17,100  Level Vancouver Center
02:26PM 53.1167 -128.3667 124° Southeast 300 345 17,100  Level Vancouver Center
02:27PM 53.0333 -128.2667 144° Southeast 290 334 17,100  Level Vancouver Center
02:28PM 52.9833 -128.1833 135° Southeast 300 345 17,100  Level Vancouver Center
02:29PM 52.9167 -128.0833 138° Southeast 300 345 17,100  Level Vancouver Center
02:30PM 52.8500 -127.9667 133° Southeast 300 345 17,100  Level Vancouver Center
02:31PM 52.8000 -127.8833 135° Southeast 310 357 17,100 -60 Level Vancouver Center
02:32PM 52.7333 -127.8000 143° Southeast 300 345 17,000 -60 Descending Vancouver Center
02:33PM 52.6667 -127.7000 138° Southeast 300 345 17,000  Level Vancouver Center
02:34PM 52.6000 -127.6167 143° Southeast 300 345 17,000  Level Vancouver Center
02:35PM 52.5333 -127.5000 133° Southeast 300 345 17,000  Level Vancouver Center
02:36PM 52.4667 -127.4167 143° Southeast 310 357 17,000  Level Vancouver Center
02:37PM 52.4167 -127.3333 135° Southeast 300 345 17,000  Level Vancouver Center
02:38PM 52.3667 -127.2500 134° Southeast 300 345 17,000  Level Vancouver Center
02:39PM 52.3000 -127.1500 137° Southeast 300 345 17,000  Level Vancouver Center
02:40PM 52.2333 -127.0500 137° Southeast 310 357 17,000  Level Vancouver Center
02:41PM 52.1667 -126.9500 137° Southeast 310 357 17,000  Level Vancouver Center
02:42PM 52.1000 -126.8667 142° Southeast 310 357 17,000  Level Vancouver Center
02:43PM 52.0333 -126.7500 133° Southeast 310 357 17,000  Level Vancouver Center
02:44PM 51.9833 -126.6667 134° Southeast 310 357 17,000  Level Vancouver Center
02:45PM 51.9167 -126.5833 142° Southeast 310 357 17,000  Level Vancouver Center
02:46PM 51.8500 -126.5000 142° Southeast 310 357 17,000  Level Vancouver Center
02:47PM 51.7833 -126.3833 133° Southeast 310 357 17,000  Level Vancouver Center
02:48PM 51.7167 -126.3000 142° Southeast 310 357 17,000 -120 Level Vancouver Center
02:49PM 51.6500 -126.2167 142° Southeast 310 357 16,800 -120 Descending Vancouver Center
02:50PM 51.5833 -126.1333 142° Southeast 310 357 16,800  Level Vancouver Center
02:51PM 51.5167 -126.0333 137° Southeast 310 357 16,800  Level Vancouver Center
02:52PM 51.4500 -125.9500 142° Southeast 300 345 16,800  Level Vancouver Center
02:53PM 51.3833 -125.8667 142° Southeast 310 357 16,800  Level Vancouver Center
02:54PM 51.3333 -125.7833 134° Southeast 300 345 16,800  Level Vancouver Center
02:55PM 51.2667 -125.6667 132° Southeast 300 345 16,800  Level Vancouver Center
02:56PM 51.2000 -125.5833 142° Southeast 300 345 16,800  Level Vancouver Center
02:57PM 51.1500 -125.5000 134° Southeast 310 357 16,800  Level Vancouver Center
02:58PM 51.0667 -125.4167 148° Southeast 310 357 16,800  Level Vancouver Center
02:59PM 51.0167 -125.3167 128° Southeast 310 357 16,800  Level Vancouver Center
03:00PM 50.9500 -125.2333 142° Southeast 300 345 16,800  Level Vancouver Center
03:01PM 50.8833 -125.1500 142° Southeast 310 357 16,800  Level Vancouver Center
03:02PM 50.8167 -125.0667 142° Southeast 310 357 16,800  Level Vancouver Center
03:03PM 50.7500 -124.9667 136° Southeast 310 357 16,800  Level Vancouver Center
03:04PM 50.6833 -124.8833 142° Southeast 300 345 16,800  Level Vancouver Center
03:05PM 50.6167 -124.8000 142° Southeast 310 357 16,900 120 Climbing Vancouver Center
03:06PM 50.5500 -124.7167 142° Southeast 310 357 17,100 60 Climbing Vancouver Center
03:07PM 50.4833 -124.6333 141° Southeast 300 345 17,100  Level Vancouver Center
03:08PM 50.4167 -124.5333 136° Southeast 310 357 17,100  Level Vancouver Center
03:09PM 50.3500 -124.4500 141° Southeast 310 357 17,100  Level Vancouver Center
03:10PM 50.2833 -124.3667 141° Southeast 310 357 17,100  Level Vancouver Center
03:11PM 50.2167 -124.2667 136° Southeast 310 357 17,100 -60 Level Vancouver Center
03:12PM 50.1500 -124.1833 141° Southeast 310 357 17,000 -60 Descending Vancouver Center
03:13PM 50.0833 -124.1167 147° Southeast 310 357 17,000  Level Vancouver Center
03:14PM 50.0167 -124.0333 141° Southeast 310 357 17,000  Level Vancouver Center
03:15PM 49.9500 -123.9333 136° Southeast 310 357 17,000  Level Vancouver Center
03:16PM 49.9000 -123.8500 133° Southeast 310 357 17,000  Level Vancouver Center
03:17PM 49.8167 -123.7667 147° Southeast 310 357 17,000  Level Vancouver Center
03:18PM 49.7500 -123.7000 147° Southeast 310 357 17,000  Level Vancouver Center
03:19PM 49.6667 -123.6500 159° South 310 357 17,000 -600 Level Vancouver Center
03:20PM 49.6000 -123.5667 141° Southeast 320 368 15,900 -1,500 Descending Vancouver Center
03:21PM 49.5167 -123.5167 159° South 340 391 14,100 -1,680 Descending Vancouver Center
03:22PM 49.4333 -123.4333 147° Southeast 330 380 12,600 -1,500 Descending Vancouver Center
03:23PM 49.3667 -123.3833 154° Southeast 310 357 11,200 -1,320 Descending Vancouver Center
03:24PM 49.2833 -123.3167 152° Southeast 290 334 10,000 -840 Descending Vancouver Center
03:25PM 49.2667 -123.2333 107° East 250 288 9,600 -840 Descending Vancouver Center
03:26PM 49.2500 -123.1333 104° East 250 288 8,400 -1,680 Descending Vancouver Center
03:27PM 49.2333 -123.0333 104° East 240 276 6,300 -1,740 Descending Vancouver Center
03:28PM 49.2333 -122.9333 90° East 230 265 5,000 -1,260 Descending Vancouver Center
03:29PM 49.1833 -122.8833 147° Southeast 220 253 3,800 -1,200 Descending Vancouver Center
03:30PM 49.1667 -122.9500 249° West 200 230 2,600 -1,020 Descending Vancouver Center
03:31PM 49.1667 -123.0333 270° West 180 207 1,800 -900 Descending Vancouver Center
03:32PM 49.1667 -123.0833 270° West 160 184 900 -900 Descending Vancouver Center